sensor_id;sensor_type;location;lat;lon;timestamp;temperature;humidity
18575;DHT22;9417;16.484;102.872;2023-07-31T00:00:33;28.10;86.00
18575;DHT22;9417;16.484;102.872;2023-07-31T00:02:41;28.10;86.10
18575;DHT22;9417;16.484;102.872;2023-07-31T00:04:48;28.20;86.00
18575;DHT22;9417;16.484;102.872;2023-07-31T00:06:54;28.20;86.10
18575;DHT22;9417;16.484;102.872;2023-07-31T00:09:02;28.20;86.10
18575;DHT22;9417;16.484;102.872;2023-07-31T00:11:09;28.20;86.10
18575;DHT22;9417;16.484;102.872;2023-07-31T00:13:16;28.20;86.00
18575;DHT22;9417;16.484;102.872;2023-07-31T00:15:24;28.20;86.00
18575;DHT22;9417;16.484;102.872;2023-07-31T00:17:33;28.20;86.00
18575;DHT22;9417;16.484;102.872;2023-07-31T00:19:40;28.30;86.00
18575;DHT22;9417;16.484;102.872;2023-07-31T00:21:48;28.30;86.00
18575;DHT22;9417;16.484;102.872;2023-07-31T00:23:55;28.30;85.90
18575;DHT22;9417;16.484;102.872;2023-07-31T00:26:03;28.30;85.80
18575;DHT22;9417;16.484;102.872;2023-07-31T00:28:10;28.20;85.80
18575;DHT22;9417;16.484;102.872;2023-07-31T00:30:18;28.30;85.90
18575;DHT22;9417;16.484;102.872;2023-07-31T00:32:26;28.20;86.00
18575;DHT22;9417;16.484;102.872;2023-07-31T00:34:37;28.30;86.10
18575;DHT22;9417;16.484;102.872;2023-07-31T00:36:45;28.30;86.00
18575;DHT22;9417;16.484;102.872;2023-07-31T00:38:52;28.30;85.90
18575;DHT22;9417;16.484;102.872;2023-07-31T00:41:00;28.30;86.00
18575;DHT22;9417;16.484;102.872;2023-07-31T00:43:07;28.30;86.00
18575;DHT22;9417;16.484;102.872;2023-07-31T00:45:14;28.30;85.90
18575;DHT22;9417;16.484;102.872;2023-07-31T00:47:22;28.30;85.90
18575;DHT22;9417;16.484;102.872;2023-07-31T00:49:29;28.30;85.90
18575;DHT22;9417;16.484;102.872;2023-07-31T00:51:38;28.30;85.80
18575;DHT22;9417;16.484;102.872;2023-07-31T00:53:46;28.40;85.80
18575;DHT22;9417;16.484;102.872;2023-07-31T00:55:54;28.40;85.70
18575;DHT22;9417;16.484;102.872;2023-07-31T00:58:01;28.40;85.70
18575;DHT22;9417;16.484;102.872;2023-07-31T01:00:10;28.40;85.80
18575;DHT22;9417;16.484;102.872;2023-07-31T01:02:17;28.50;85.70
18575;DHT22;9417;16.484;102.872;2023-07-31T01:04:25;28.40;85.80
18575;DHT22;9417;16.484;102.872;2023-07-31T01:06:40;28.50;85.80
18575;DHT22;9417;16.484;102.872;2023-07-31T01:08:57;28.50;85.70
18575;DHT22;9417;16.484;102.872;2023-07-31T01:11:10;28.50;85.50
18575;DHT22;9417;16.484;102.872;2023-07-31T01:13:20;28.50;85.20
18575;DHT22;9417;16.484;102.872;2023-07-31T01:15:28;28.50;84.90
18575;DHT22;9417;16.484;102.872;2023-07-31T01:17:35;28.60;84.80
18575;DHT22;9417;16.484;102.872;2023-07-31T01:19:43;28.60;84.70
18575;DHT22;9417;16.484;102.872;2023-07-31T01:24:29;28.70;84.00
18575;DHT22;9417;16.484;102.872;2023-07-31T01:26:40;28.70;83.80
18575;DHT22;9417;16.484;102.872;2023-07-31T01:28:58;28.60;83.60
18575;DHT22;9417;16.484;102.872;2023-07-31T01:31:13;28.70;83.80
18575;DHT22;9417;16.484;102.872;2023-07-31T01:33:21;28.70;84.00
18575;DHT22;9417;16.484;102.872;2023-07-31T01:35:29;28.70;84.10
18575;DHT22;9417;16.484;102.872;2023-07-31T01:37:36;28.80;84.20
18575;DHT22;9417;16.484;102.872;2023-07-31T01:39:44;28.80;84.30
18575;DHT22;9417;16.484;102.872;2023-07-31T01:41:53;28.80;84.30
18575;DHT22;9417;16.484;102.872;2023-07-31T01:44:01;28.90;84.20
18575;DHT22;9417;16.484;102.872;2023-07-31T01:46:08;28.90;84.20
18575;DHT22;9417;16.484;102.872;2023-07-31T01:48:16;28.90;83.90
18575;DHT22;9417;16.484;102.872;2023-07-31T01:50:23;29.00;83.80
18575;DHT22;9417;16.484;102.872;2023-07-31T01:52:31;29.00;83.80
18575;DHT22;9417;16.484;102.872;2023-07-31T01:54:38;29.00;83.60
18575;DHT22;9417;16.484;102.872;2023-07-31T01:56:45;29.00;83.50
18575;DHT22;9417;16.484;102.872;2023-07-31T01:58:55;29.10;83.30
18575;DHT22;9417;16.484;102.872;2023-07-31T02:01:02;29.10;83.20
18575;DHT22;9417;16.484;102.872;2023-07-31T02:03:10;29.10;83.10
18575;DHT22;9417;16.484;102.872;2023-07-31T02:05:18;29.10;83.00
18575;DHT22;9417;16.484;102.872;2023-07-31T02:07:25;29.20;83.00
18575;DHT22;9417;16.484;102.872;2023-07-31T02:09:33;29.20;82.80
18575;DHT22;9417;16.484;102.872;2023-07-31T02:11:40;29.30;82.80
18575;DHT22;9417;16.484;102.872;2023-07-31T02:13:47;29.30;83.10
18575;DHT22;9417;16.484;102.872;2023-07-31T02:15:56;29.30;83.00
18575;DHT22;9417;16.484;102.872;2023-07-31T02:18:03;29.30;82.60
18575;DHT22;9417;16.484;102.872;2023-07-31T02:20:10;29.40;82.40
18575;DHT22;9417;16.484;102.872;2023-07-31T02:22:16;29.40;82.30
18575;DHT22;9417;16.484;102.872;2023-07-31T02:24:24;29.40;82.20
18575;DHT22;9417;16.484;102.872;2023-07-31T02:26:34;29.40;82.20
18575;DHT22;9417;16.484;102.872;2023-07-31T02:28:42;29.40;82.10
18575;DHT22;9417;16.484;102.872;2023-07-31T02:30:51;29.40;82.10
18575;DHT22;9417;16.484;102.872;2023-07-31T02:33:00;29.50;82.00
18575;DHT22;9417;16.484;102.872;2023-07-31T02:35:08;29.50;81.90
18575;DHT22;9417;16.484;102.872;2023-07-31T02:37:19;29.50;81.60
18575;DHT22;9417;16.484;102.872;2023-07-31T02:39:27;29.50;81.40
18575;DHT22;9417;16.484;102.872;2023-07-31T02:41:34;29.50;81.40
18575;DHT22;9417;16.484;102.872;2023-07-31T02:43:41;29.50;81.40
18575;DHT22;9417;16.484;102.872;2023-07-31T02:45:52;29.50;81.20
18575;DHT22;9417;16.484;102.872;2023-07-31T02:48:01;29.50;81.10
18575;DHT22;9417;16.484;102.872;2023-07-31T02:50:09;29.50;81.20
18575;DHT22;9417;16.484;102.872;2023-07-31T02:52:17;29.50;81.20
18575;DHT22;9417;16.484;102.872;2023-07-31T02:54:25;29.50;81.20
18575;DHT22;9417;16.484;102.872;2023-07-31T02:56:32;29.50;81.00
18575;DHT22;9417;16.484;102.872;2023-07-31T02:58:39;29.50;80.80
18575;DHT22;9417;16.484;102.872;2023-07-31T03:00:47;29.50;80.90
18575;DHT22;9417;16.484;102.872;2023-07-31T03:02:54;29.50;81.10
18575;DHT22;9417;16.484;102.872;2023-07-31T03:05:04;29.50;81.30
18575;DHT22;9417;16.484;102.872;2023-07-31T03:07:11;29.50;81.10
18575;DHT22;9417;16.484;102.872;2023-07-31T03:09:19;29.50;81.10
18575;DHT22;9417;16.484;102.872;2023-07-31T03:11:26;29.50;81.00
18575;DHT22;9417;16.484;102.872;2023-07-31T03:13:34;29.50;81.10
18575;DHT22;9417;16.484;102.872;2023-07-31T03:15:43;29.50;81.50
18575;DHT22;9417;16.484;102.872;2023-07-31T03:17:51;29.60;81.40
18575;DHT22;9417;16.484;102.872;2023-07-31T03:19:58;29.60;81.10
18575;DHT22;9417;16.484;102.872;2023-07-31T03:22:08;29.50;80.40
18575;DHT22;9417;16.484;102.872;2023-07-31T03:24:15;29.60;80.20
18575;DHT22;9417;16.484;102.872;2023-07-31T03:26:22;29.50;79.70
18575;DHT22;9417;16.484;102.872;2023-07-31T03:28:29;29.60;79.80
18575;DHT22;9417;16.484;102.872;2023-07-31T03:30:37;29.60;79.50
18575;DHT22;9417;16.484;102.872;2023-07-31T03:32:44;29.60;79.50
18575;DHT22;9417;16.484;102.872;2023-07-31T03:34:52;29.60;79.50
18575;DHT22;9417;16.484;102.872;2023-07-31T03:36:59;29.60;79.40
18575;DHT22;9417;16.484;102.872;2023-07-31T03:39:08;29.60;79.30
18575;DHT22;9417;16.484;102.872;2023-07-31T03:41:15;29.60;79.20
18575;DHT22;9417;16.484;102.872;2023-07-31T03:43:23;29.60;78.90
18575;DHT22;9417;16.484;102.872;2023-07-31T03:45:30;29.70;78.80
18575;DHT22;9417;16.484;102.872;2023-07-31T03:47:37;29.70;78.70
18575;DHT22;9417;16.484;102.872;2023-07-31T03:49:45;29.70;78.70
18575;DHT22;9417;16.484;102.872;2023-07-31T03:51:52;29.70;78.80
18575;DHT22;9417;16.484;102.872;2023-07-31T03:53:58;29.70;78.60
18575;DHT22;9417;16.484;102.872;2023-07-31T03:56:07;29.70;78.60
18575;DHT22;9417;16.484;102.872;2023-07-31T03:58:15;29.70;78.70
18575;DHT22;9417;16.484;102.872;2023-07-31T04:00:22;29.70;78.40
18575;DHT22;9417;16.484;102.872;2023-07-31T04:02:30;29.70;78.10
18575;DHT22;9417;16.484;102.872;2023-07-31T04:04:37;29.70;78.00
18575;DHT22;9417;16.484;102.872;2023-07-31T04:06:44;29.80;78.30
18575;DHT22;9417;16.484;102.872;2023-07-31T04:08:51;29.80;78.50
18575;DHT22;9417;16.484;102.872;2023-07-31T04:10:59;29.80;78.40
18575;DHT22;9417;16.484;102.872;2023-07-31T04:13:07;29.80;78.60
18575;DHT22;9417;16.484;102.872;2023-07-31T04:15:15;29.80;78.50
18575;DHT22;9417;16.484;102.872;2023-07-31T04:17:22;29.80;78.50
18575;DHT22;9417;16.484;102.872;2023-07-31T04:19:29;29.80;78.50
18575;DHT22;9417;16.484;102.872;2023-07-31T04:21:37;29.80;78.50
18575;DHT22;9417;16.484;102.872;2023-07-31T04:23:44;29.90;78.70
18575;DHT22;9417;16.484;102.872;2023-07-31T04:25:51;29.90;78.40
18575;DHT22;9417;16.484;102.872;2023-07-31T04:27:58;29.90;78.20
18575;DHT22;9417;16.484;102.872;2023-07-31T04:30:08;29.90;77.90
18575;DHT22;9417;16.484;102.872;2023-07-31T04:32:16;29.90;77.40
18575;DHT22;9417;16.484;102.872;2023-07-31T04:34:24;29.90;77.20
18575;DHT22;9417;16.484;102.872;2023-07-31T04:36:31;30.00;77.20
18575;DHT22;9417;16.484;102.872;2023-07-31T04:38:39;29.90;76.40
18575;DHT22;9417;16.484;102.872;2023-07-31T04:40:46;30.00;76.20
18575;DHT22;9417;16.484;102.872;2023-07-31T04:42:53;29.90;76.20
18575;DHT22;9417;16.484;102.872;2023-07-31T04:45:00;29.90;76.30
18575;DHT22;9417;16.484;102.872;2023-07-31T04:47:09;29.90;76.30
18575;DHT22;9417;16.484;102.872;2023-07-31T04:49:15;30.00;76.10
18575;DHT22;9417;16.484;102.872;2023-07-31T04:51:23;29.90;75.80
18575;DHT22;9417;16.484;102.872;2023-07-31T04:53:30;29.90;75.90
18575;DHT22;9417;16.484;102.872;2023-07-31T04:55:38;30.00;76.00
18575;DHT22;9417;16.484;102.872;2023-07-31T04:57:45;30.00;76.10
18575;DHT22;9417;16.484;102.872;2023-07-31T04:59:52;30.00;76.10
18575;DHT22;9417;16.484;102.872;2023-07-31T05:02:00;30.00;75.80
18575;DHT22;9417;16.484;102.872;2023-07-31T05:04:09;30.00;75.60
18575;DHT22;9417;16.484;102.872;2023-07-31T05:06:16;30.00;75.60
18575;DHT22;9417;16.484;102.872;2023-07-31T05:08:25;30.10;75.90
18575;DHT22;9417;16.484;102.872;2023-07-31T05:10:32;30.10;76.50
18575;DHT22;9417;16.484;102.872;2023-07-31T05:12:40;30.00;76.40
18575;DHT22;9417;16.484;102.872;2023-07-31T05:14:47;30.00;76.60
18575;DHT22;9417;16.484;102.872;2023-07-31T05:16:54;30.00;76.80
18575;DHT22;9417;16.484;102.872;2023-07-31T05:19:02;30.00;76.90
18575;DHT22;9417;16.484;102.872;2023-07-31T05:21:11;30.00;76.80
18575;DHT22;9417;16.484;102.872;2023-07-31T05:23:19;30.00;76.90
18575;DHT22;9417;16.484;102.872;2023-07-31T05:25:26;30.00;76.90
18575;DHT22;9417;16.484;102.872;2023-07-31T05:27:33;30.00;76.70
18575;DHT22;9417;16.484;102.872;2023-07-31T05:29:41;30.00;76.50
18575;DHT22;9417;16.484;102.872;2023-07-31T05:31:49;30.00;76.50
18575;DHT22;9417;16.484;102.872;2023-07-31T05:33:56;30.00;76.70
18575;DHT22;9417;16.484;102.872;2023-07-31T05:36:03;30.00;76.80
18575;DHT22;9417;16.484;102.872;2023-07-31T05:38:13;30.00;76.80
18575;DHT22;9417;16.484;102.872;2023-07-31T05:40:20;30.10;76.80
18575;DHT22;9417;16.484;102.872;2023-07-31T05:42:27;30.10;76.90
18575;DHT22;9417;16.484;102.872;2023-07-31T05:44:35;30.10;77.00
18575;DHT22;9417;16.484;102.872;2023-07-31T05:46:42;30.10;77.10
18575;DHT22;9417;16.484;102.872;2023-07-31T05:48:49;30.10;77.20
18575;DHT22;9417;16.484;102.872;2023-07-31T05:50:57;30.10;76.90
18575;DHT22;9417;16.484;102.872;2023-07-31T05:53:04;30.10;76.80
18575;DHT22;9417;16.484;102.872;2023-07-31T05:55:14;30.10;76.70
18575;DHT22;9417;16.484;102.872;2023-07-31T05:57:21;30.10;76.60
18575;DHT22;9417;16.484;102.872;2023-07-31T05:59:28;30.10;76.60
18575;DHT22;9417;16.484;102.872;2023-07-31T06:01:37;30.10;76.70
18575;DHT22;9417;16.484;102.872;2023-07-31T06:03:45;30.10;76.80
18575;DHT22;9417;16.484;102.872;2023-07-31T06:05:52;30.10;76.90
18575;DHT22;9417;16.484;102.872;2023-07-31T06:07:59;30.10;77.10
18575;DHT22;9417;16.484;102.872;2023-07-31T06:10:07;30.10;76.70
18575;DHT22;9417;16.484;102.872;2023-07-31T06:12:16;30.10;76.50
18575;DHT22;9417;16.484;102.872;2023-07-31T06:14:24;30.20;76.80
18575;DHT22;9417;16.484;102.872;2023-07-31T06:16:31;30.20;76.60
18575;DHT22;9417;16.484;102.872;2023-07-31T06:18:38;30.20;76.40
18575;DHT22;9417;16.484;102.872;2023-07-31T06:20:44;30.30;76.30
18575;DHT22;9417;16.484;102.872;2023-07-31T06:22:52;30.30;76.30
18575;DHT22;9417;16.484;102.872;2023-07-31T06:25:00;30.30;76.40
18575;DHT22;9417;16.484;102.872;2023-07-31T06:27:07;30.40;76.10
18575;DHT22;9417;16.484;102.872;2023-07-31T06:29:16;30.40;76.10
18575;DHT22;9417;16.484;102.872;2023-07-31T06:31:23;30.40;75.60
18575;DHT22;9417;16.484;102.872;2023-07-31T06:33:31;30.40;75.50
18575;DHT22;9417;16.484;102.872;2023-07-31T06:35:38;30.40;75.60
18575;DHT22;9417;16.484;102.872;2023-07-31T06:37:45;30.50;75.50
18575;DHT22;9417;16.484;102.872;2023-07-31T06:39:53;30.50;75.60
18575;DHT22;9417;16.484;102.872;2023-07-31T06:42:00;30.60;75.80
18575;DHT22;9417;16.484;102.872;2023-07-31T06:44:07;30.70;75.80
18575;DHT22;9417;16.484;102.872;2023-07-31T06:46:16;30.80;75.70
18575;DHT22;9417;16.484;102.872;2023-07-31T06:48:24;30.90;75.20
18575;DHT22;9417;16.484;102.872;2023-07-31T06:50:31;31.20;74.70
18575;DHT22;9417;16.484;102.872;2023-07-31T06:52:39;31.40;74.50
18575;DHT22;9417;16.484;102.872;2023-07-31T06:55:01;31.60;74.30
18575;DHT22;9417;16.484;102.872;2023-07-31T06:57:10;31.70;73.90
18575;DHT22;9417;16.484;102.872;2023-07-31T06:59:17;31.80;73.20
18575;DHT22;9417;16.484;102.872;2023-07-31T07:01:26;31.80;73.30
18575;DHT22;9417;16.484;102.872;2023-07-31T07:03:34;31.90;73.40
18575;DHT22;9417;16.484;102.872;2023-07-31T07:05:41;31.80;73.30
18575;DHT22;9417;16.484;102.872;2023-07-31T07:07:50;31.80;73.30
18575;DHT22;9417;16.484;102.872;2023-07-31T07:09:58;31.80;73.20
18575;DHT22;9417;16.484;102.872;2023-07-31T07:12:06;31.70;73.00
18575;DHT22;9417;16.484;102.872;2023-07-31T07:14:14;31.60;73.50
18575;DHT22;9417;16.484;102.872;2023-07-31T07:16:21;31.50;73.60
18575;DHT22;9417;16.484;102.872;2023-07-31T07:18:30;31.60;74.10
18575;DHT22;9417;16.484;102.872;2023-07-31T07:20:40;31.50;74.30
18575;DHT22;9417;16.484;102.872;2023-07-31T07:22:48;31.40;74.40
18575;DHT22;9417;16.484;102.872;2023-07-31T07:24:55;31.40;74.60
18575;DHT22;9417;16.484;102.872;2023-07-31T07:27:01;31.40;74.10
18575;DHT22;9417;16.484;102.872;2023-07-31T07:29:08;31.30;74.80
18575;DHT22;9417;16.484;102.872;2023-07-31T07:31:17;31.30;75.10
18575;DHT22;9417;16.484;102.872;2023-07-31T07:33:24;31.30;75.20
18575;DHT22;9417;16.484;102.872;2023-07-31T07:35:33;31.30;75.40
18575;DHT22;9417;16.484;102.872;2023-07-31T07:37:41;31.40;75.50
18575;DHT22;9417;16.484;102.872;2023-07-31T07:39:48;31.30;75.60
18575;DHT22;9417;16.484;102.872;2023-07-31T07:41:55;31.30;75.20
18575;DHT22;9417;16.484;102.872;2023-07-31T07:44:02;31.30;75.00
18575;DHT22;9417;16.484;102.872;2023-07-31T07:46:10;31.20;74.50
18575;DHT22;9417;16.484;102.872;2023-07-31T07:48:17;31.10;75.00
18575;DHT22;9417;16.484;102.872;2023-07-31T07:50:25;31.10;75.30
18575;DHT22;9417;16.484;102.872;2023-07-31T07:52:34;31.00;75.10
18575;DHT22;9417;16.484;102.872;2023-07-31T07:54:41;30.90;75.20
18575;DHT22;9417;16.484;102.872;2023-07-31T07:56:48;30.90;75.20
18575;DHT22;9417;16.484;102.872;2023-07-31T07:58:56;30.80;75.70
18575;DHT22;9417;16.484;102.872;2023-07-31T08:01:03;30.80;75.80
18575;DHT22;9417;16.484;102.872;2023-07-31T08:03:10;30.80;75.50
18575;DHT22;9417;16.484;102.872;2023-07-31T08:05:18;30.80;75.50
18575;DHT22;9417;16.484;102.872;2023-07-31T08:07:26;30.90;75.70
18575;DHT22;9417;16.484;102.872;2023-07-31T08:09:34;30.90;75.70
18575;DHT22;9417;16.484;102.872;2023-07-31T08:11:42;31.00;75.30
18575;DHT22;9417;16.484;102.872;2023-07-31T08:13:49;31.10;75.20
18575;DHT22;9417;16.484;102.872;2023-07-31T08:15:56;31.10;74.80
18575;DHT22;9417;16.484;102.872;2023-07-31T08:18:03;31.00;74.60
18575;DHT22;9417;16.484;102.872;2023-07-31T08:20:12;31.00;74.70
18575;DHT22;9417;16.484;102.872;2023-07-31T08:22:19;31.10;75.00
18575;DHT22;9417;16.484;102.872;2023-07-31T08:24:26;31.00;75.20
18575;DHT22;9417;16.484;102.872;2023-07-31T08:26:35;31.00;75.70
18575;DHT22;9417;16.484;102.872;2023-07-31T08:28:43;30.90;75.40
18575;DHT22;9417;16.484;102.872;2023-07-31T08:30:49;30.80;76.40
18575;DHT22;9417;16.484;102.872;2023-07-31T08:32:57;30.70;77.20
18575;DHT22;9417;16.484;102.872;2023-07-31T08:35:04;30.60;77.50
18575;DHT22;9417;16.484;102.872;2023-07-31T08:37:11;30.60;77.90
18575;DHT22;9417;16.484;102.872;2023-07-31T08:39:19;30.60;78.50
18575;DHT22;9417;16.484;102.872;2023-07-31T08:41:27;30.50;79.10
18575;DHT22;9417;16.484;102.872;2023-07-31T08:43:36;30.50;79.60
18575;DHT22;9417;16.484;102.872;2023-07-31T08:45:44;30.50;80.00
18575;DHT22;9417;16.484;102.872;2023-07-31T08:47:52;30.60;80.40
18575;DHT22;9417;16.484;102.872;2023-07-31T08:50:00;30.60;80.80
18575;DHT22;9417;16.484;102.872;2023-07-31T08:52:09;30.60;80.90
18575;DHT22;9417;16.484;102.872;2023-07-31T08:54:16;30.60;80.90
18575;DHT22;9417;16.484;102.872;2023-07-31T08:56:24;30.60;80.60
18575;DHT22;9417;16.484;102.872;2023-07-31T08:58:35;30.60;80.20
18575;DHT22;9417;16.484;102.872;2023-07-31T09:00:43;30.60;80.20
18575;DHT22;9417;16.484;102.872;2023-07-31T09:02:57;30.70;79.90
18575;DHT22;9417;16.484;102.872;2023-07-31T09:05:08;30.70;79.80
18575;DHT22;9417;16.484;102.872;2023-07-31T09:07:16;30.70;79.60
18575;DHT22;9417;16.484;102.872;2023-07-31T09:09:24;30.80;79.20
18575;DHT22;9417;16.484;102.872;2023-07-31T09:11:31;30.80;78.60
18575;DHT22;9417;16.484;102.872;2023-07-31T09:13:42;30.80;78.60
18575;DHT22;9417;16.484;102.872;2023-07-31T09:15:49;30.90;79.10
18575;DHT22;9417;16.484;102.872;2023-07-31T09:18:00;30.90;78.80
18575;DHT22;9417;16.484;102.872;2023-07-31T09:20:17;31.00;78.00
18575;DHT22;9417;16.484;102.872;2023-07-31T09:22:33;31.10;77.20
18575;DHT22;9417;16.484;102.872;2023-07-31T09:24:40;31.10;76.90
18575;DHT22;9417;16.484;102.872;2023-07-31T09:26:47;31.10;76.80
18575;DHT22;9417;16.484;102.872;2023-07-31T09:29:03;31.10;76.80
18575;DHT22;9417;16.484;102.872;2023-07-31T09:31:12;31.10;77.00
18575;DHT22;9417;16.484;102.872;2023-07-31T09:33:20;31.20;76.50
18575;DHT22;9417;16.484;102.872;2023-07-31T09:35:29;31.30;76.20
18575;DHT22;9417;16.484;102.872;2023-07-31T09:37:37;31.30;75.50
18575;DHT22;9417;16.484;102.872;2023-07-31T09:39:52;31.30;76.20
18575;DHT22;9417;16.484;102.872;2023-07-31T09:42:04;31.30;76.40
18575;DHT22;9417;16.484;102.872;2023-07-31T09:44:13;31.20;75.90
18575;DHT22;9417;16.484;102.872;2023-07-31T09:46:21;31.20;75.20
18575;DHT22;9417;16.484;102.872;2023-07-31T09:48:29;31.10;75.40
18575;DHT22;9417;16.484;102.872;2023-07-31T09:50:38;31.00;75.50
18575;DHT22;9417;16.484;102.872;2023-07-31T09:52:45;31.00;75.90
18575;DHT22;9417;16.484;102.872;2023-07-31T09:54:52;30.90;76.00
18575;DHT22;9417;16.484;102.872;2023-07-31T09:57:01;30.90;76.50
18575;DHT22;9417;16.484;102.872;2023-07-31T09:59:08;30.80;76.60
18575;DHT22;9417;16.484;102.872;2023-07-31T10:01:19;30.80;76.20
18575;DHT22;9417;16.484;102.872;2023-07-31T10:03:27;30.80;76.10
18575;DHT22;9417;16.484;102.872;2023-07-31T10:05:37;30.80;76.00
18575;DHT22;9417;16.484;102.872;2023-07-31T10:07:54;30.80;75.70
18575;DHT22;9417;16.484;102.872;2023-07-31T10:10:01;30.80;75.50
18575;DHT22;9417;16.484;102.872;2023-07-31T10:12:13;30.80;75.70
18575;DHT22;9417;16.484;102.872;2023-07-31T10:14:21;30.80;75.80
18575;DHT22;9417;16.484;102.872;2023-07-31T10:16:30;30.80;75.50
18575;DHT22;9417;16.484;102.872;2023-07-31T10:18:39;30.80;75.30
18575;DHT22;9417;16.484;102.872;2023-07-31T10:20:47;30.80;75.20
18575;DHT22;9417;16.484;102.872;2023-07-31T10:22:55;30.80;75.30
18575;DHT22;9417;16.484;102.872;2023-07-31T10:25:04;30.80;75.60
18575;DHT22;9417;16.484;102.872;2023-07-31T10:27:14;30.80;75.50
18575;DHT22;9417;16.484;102.872;2023-07-31T10:29:23;30.80;75.30
18575;DHT22;9417;16.484;102.872;2023-07-31T10:31:33;30.80;74.80
18575;DHT22;9417;16.484;102.872;2023-07-31T10:33:41;30.80;74.70
18575;DHT22;9417;16.484;102.872;2023-07-31T10:35:49;30.80;74.90
18575;DHT22;9417;16.484;102.872;2023-07-31T10:38:10;30.70;75.00
18575;DHT22;9417;16.484;102.872;2023-07-31T10:40:18;30.70;75.10
18575;DHT22;9417;16.484;102.872;2023-07-31T10:42:30;30.70;75.30
18575;DHT22;9417;16.484;102.872;2023-07-31T10:44:43;30.60;75.30
18575;DHT22;9417;16.484;102.872;2023-07-31T10:46:55;30.60;75.20
18575;DHT22;9417;16.484;102.872;2023-07-31T10:49:03;30.60;75.00
18575;DHT22;9417;16.484;102.872;2023-07-31T10:51:11;30.60;75.00
18575;DHT22;9417;16.484;102.872;2023-07-31T10:53:26;30.60;75.00
18575;DHT22;9417;16.484;102.872;2023-07-31T10:55:38;30.60;75.00
18575;DHT22;9417;16.484;102.872;2023-07-31T10:57:48;30.60;74.90
18575;DHT22;9417;16.484;102.872;2023-07-31T11:00:21;30.50;74.30
18575;DHT22;9417;16.484;102.872;2023-07-31T11:02:34;30.50;73.80
18575;DHT22;9417;16.484;102.872;2023-07-31T11:04:42;30.50;73.60
18575;DHT22;9417;16.484;102.872;2023-07-31T11:06:56;30.50;73.80
18575;DHT22;9417;16.484;102.872;2023-07-31T11:09:04;30.50;73.80
18575;DHT22;9417;16.484;102.872;2023-07-31T11:11:13;30.50;74.10
18575;DHT22;9417;16.484;102.872;2023-07-31T11:13:20;30.40;73.80
18575;DHT22;9417;16.484;102.872;2023-07-31T11:15:27;30.40;73.70
18575;DHT22;9417;16.484;102.872;2023-07-31T11:17:39;30.40;73.70
18575;DHT22;9417;16.484;102.872;2023-07-31T11:19:46;30.30;74.00
18575;DHT22;9417;16.484;102.872;2023-07-31T11:21:57;30.30;74.10
18575;DHT22;9417;16.484;102.872;2023-07-31T11:24:06;30.30;74.40
18575;DHT22;9417;16.484;102.872;2023-07-31T11:26:13;30.30;74.60
18575;DHT22;9417;16.484;102.872;2023-07-31T11:28:21;30.30;74.70
18575;DHT22;9417;16.484;102.872;2023-07-31T11:30:28;30.20;75.00
18575;DHT22;9417;16.484;102.872;2023-07-31T11:32:39;30.20;74.90
18575;DHT22;9417;16.484;102.872;2023-07-31T11:34:53;30.20;74.70
18575;DHT22;9417;16.484;102.872;2023-07-31T11:37:00;30.20;74.90
18575;DHT22;9417;16.484;102.872;2023-07-31T11:39:11;30.20;74.90
18575;DHT22;9417;16.484;102.872;2023-07-31T11:41:18;30.20;75.30
18575;DHT22;9417;16.484;102.872;2023-07-31T11:43:26;30.20;75.60
18575;DHT22;9417;16.484;102.872;2023-07-31T11:45:32;30.10;76.00
18575;DHT22;9417;16.484;102.872;2023-07-31T11:47:41;30.10;75.90
18575;DHT22;9417;16.484;102.872;2023-07-31T11:49:50;30.10;75.80
18575;DHT22;9417;16.484;102.872;2023-07-31T11:51:57;30.00;76.10
18575;DHT22;9417;16.484;102.872;2023-07-31T11:54:05;30.00;76.50
18575;DHT22;9417;16.484;102.872;2023-07-31T11:56:14;29.90;76.60
18575;DHT22;9417;16.484;102.872;2023-07-31T11:58:23;29.90;76.50
18575;DHT22;9417;16.484;102.872;2023-07-31T12:00:31;29.90;76.80
18575;DHT22;9417;16.484;102.872;2023-07-31T12:02:41;29.90;77.20
18575;DHT22;9417;16.484;102.872;2023-07-31T12:04:48;29.80;77.60
18575;DHT22;9417;16.484;102.872;2023-07-31T12:06:56;29.80;78.30
18575;DHT22;9417;16.484;102.872;2023-07-31T12:09:04;29.80;78.50
18575;DHT22;9417;16.484;102.872;2023-07-31T12:11:11;29.80;78.70
18575;DHT22;9417;16.484;102.872;2023-07-31T12:13:21;29.80;78.80
18575;DHT22;9417;16.484;102.872;2023-07-31T12:15:36;29.80;79.30
18575;DHT22;9417;16.484;102.872;2023-07-31T12:17:48;29.80;79.70
18575;DHT22;9417;16.484;102.872;2023-07-31T12:19:55;29.80;79.80
18575;DHT22;9417;16.484;102.872;2023-07-31T12:22:12;29.70;79.90
18575;DHT22;9417;16.484;102.872;2023-07-31T12:24:20;29.70;79.50
18575;DHT22;9417;16.484;102.872;2023-07-31T12:26:34;29.70;79.50
18575;DHT22;9417;16.484;102.872;2023-07-31T12:28:43;29.70;79.10
18575;DHT22;9417;16.484;102.872;2023-07-31T12:30:50;29.60;79.10
18575;DHT22;9417;16.484;102.872;2023-07-31T12:33:03;29.60;79.10
18575;DHT22;9417;16.484;102.872;2023-07-31T12:35:12;29.60;78.70
18575;DHT22;9417;16.484;102.872;2023-07-31T12:37:19;29.60;78.70
18575;DHT22;9417;16.484;102.872;2023-07-31T12:39:27;29.60;78.80
18575;DHT22;9417;16.484;102.872;2023-07-31T12:41:35;29.50;78.70
18575;DHT22;9417;16.484;102.872;2023-07-31T12:43:43;29.60;78.60
18575;DHT22;9417;16.484;102.872;2023-07-31T12:45:53;29.50;78.40
18575;DHT22;9417;16.484;102.872;2023-07-31T12:48:02;29.50;78.40
18575;DHT22;9417;16.484;102.872;2023-07-31T12:50:10;29.60;78.50
18575;DHT22;9417;16.484;102.872;2023-07-31T12:52:17;29.50;78.70
18575;DHT22;9417;16.484;102.872;2023-07-31T12:54:25;29.50;78.80
18575;DHT22;9417;16.484;102.872;2023-07-31T12:56:33;29.50;78.80
18575;DHT22;9417;16.484;102.872;2023-07-31T12:58:41;29.50;79.20
18575;DHT22;9417;16.484;102.872;2023-07-31T13:00:48;29.50;79.40
18575;DHT22;9417;16.484;102.872;2023-07-31T13:02:55;29.50;79.70
18575;DHT22;9417;16.484;102.872;2023-07-31T13:05:04;29.50;80.10
18575;DHT22;9417;16.484;102.872;2023-07-31T13:07:12;29.50;80.40
18575;DHT22;9417;16.484;102.872;2023-07-31T13:09:19;29.50;80.70
18575;DHT22;9417;16.484;102.872;2023-07-31T13:11:27;29.40;80.80
18575;DHT22;9417;16.484;102.872;2023-07-31T13:13:34;29.50;81.10
18575;DHT22;9417;16.484;102.872;2023-07-31T13:15:40;29.50;81.60
18575;DHT22;9417;16.484;102.872;2023-07-31T13:17:47;29.40;82.10
18575;DHT22;9417;16.484;102.872;2023-07-31T13:19:55;29.40;82.30